Flight Track Log - Related Links

Times and Time Zones

All times are in EDT time to prevent confusion due to time zone crossing. See the RPA3228 flight status page for this flight to view local times or setup timezone preferences in your user account.

Time Position Orientation Groundspeed Altitude Reporting Facility
EDT Latitude Longitude Course Direction KTS MPH feet Rate Location/Type
Wed 07:49:21 AM 36.1333 -86.6833 68° East 162 186 1,500  Level Nashville TRACON
Wed 07:49:57 AM 36.1667 -86.6667 22° Northeast 162 186 2,800 2,125 Climbing Nashville TRACON
Wed 07:50:57 AM 36.1667 -86.6000 90° East 256 295 4,900 2,600 Climbing Nashville TRACON
Wed 07:51:00 AM 36.1738 -86.2311 76° East  Level FlightAware Approximate
Wed 07:51:57 AM 36.1667 -86.5000 90° East 294 338 8,000  Level Nashville TRACON
Wed 07:52:00 AM 36.1972 -86.0863 80° East  Level FlightAware Approximate
Wed 07:53:00 AM 36.2459 -85.9520 64° Northeast  Level FlightAware Approximate
Wed 07:53:58 AM 36.1794 -86.2892 86° East 346 398 13,200  Level Memphis Center
Wed 07:54:00 AM 36.2943 -85.8170 68° East  Level FlightAware Approximate
Wed 07:54:58 AM 36.1900 -86.1703 84° East 341 392 15,500  Level Memphis Center
Wed 07:55:58 AM 36.2108 -86.0483 78° East 349 402 17,700 2,000 Climbing Memphis Center
Wed 07:56:58 AM 36.2592 -85.9403 61° Northeast 354 407 19,500 1,785 Climbing Memphis Center
Wed 07:58:36 AM 36.3397 -85.7578 61° Northeast 383 441 22,400 1,650 Climbing Indianapolis Center
Wed 07:59:38 AM 36.3961 -85.6436 58° Northeast 387 445 23,900 1,366 Climbing Indianapolis Center
Wed 08:00:39 AM 36.4533 -85.5225 60° Northeast 400 460 25,200 1,659 Climbing Indianapolis Center
Wed 08:01:41 AM 36.5119 -85.3983 60° Northeast 410 472 27,300 2,049 Climbing Indianapolis Center
Wed 08:02:42 AM 36.5678 -85.2789 60° Northeast 403 464 29,400 1,902 Climbing Indianapolis Center
Wed 08:03:44 AM 36.6236 -85.1553 61° Northeast 406 467 31,200 1,610 Climbing Indianapolis Center
Wed 08:04:45 AM 36.6644 -85.0172 70° East 421 484 32,700 1,220 Climbing Indianapolis Center
Wed 08:05:47 AM 36.7150 -84.8533 69° East 420 483 33,700 976 Climbing Indianapolis Center
Wed 08:06:48 AM 36.7550 -84.7172 70° East 418 481 34,700 634 Climbing Indianapolis Center
Wed 08:07:50 AM 36.7969 -84.5825 69° East 416 479 35,000 146 Climbing Indianapolis Center
Wed 08:08:51 AM 36.8333 -84.4603 70° East 417 480 35,000  Level Indianapolis Center
Wed 08:09:53 AM 36.8819 -84.3022 69° East 417 480 35,000  Level Indianapolis Center
Wed 08:10:54 AM 36.9222 -84.1667 70° East 416 479 35,000  Level Indianapolis Center
Wed 08:11:56 AM 36.9619 -84.0303 70° East 417 480 35,000  Level Indianapolis Center
Wed 08:12:57 AM 37.0033 -83.8936 69° East 419 482 35,000  Level Indianapolis Center
Wed 08:13:59 AM 37.0444 -83.7578 69° East 417 480 35,000  Level Indianapolis Center
Wed 08:15:00 AM 37.0833 -83.6197 71° East 419 482 35,000  Level Indianapolis Center
Wed 08:16:02 AM 37.1242 -83.4814 70° East 421 484 35,000  Level Indianapolis Center
Wed 08:17:03 AM 37.1650 -83.3419 70° East 422 486 35,000  Level Indianapolis Center
Wed 08:18:05 AM 37.2122 -83.1797 70° East 423 487 35,000  Level Indianapolis Center
Wed 08:19:07 AM 37.2514 -83.0392 71° East 423 487 35,000  Level Indianapolis Center
Wed 08:20:08 AM 37.2919 -82.8992 70° East 423 487 35,000  Level Indianapolis Center
Wed 08:21:10 AM 37.3319 -82.7589 70° East 424 488 35,000  Level Indianapolis Center
Wed 08:22:11 AM 37.3722 -82.6186 70° East 423 487 35,000  Level Indianapolis Center
Wed 08:23:13 AM 37.4122 -82.4786 70° East 425 489 35,000  Level Indianapolis Center
Wed 08:24:15 AM 37.4494 -82.3381 72° East 423 487 35,000  Level Indianapolis Center
Wed 08:25:16 AM 37.4894 -82.1983 70° East 422 486 35,000  Level Indianapolis Center
Wed 08:26:18 AM 37.5281 -82.0583 71° East 422 486 35,000  Level Indianapolis Center
Wed 08:27:19 AM 37.5733 -81.8958 71° East 421 484 35,000  Level Indianapolis Center
Wed 08:28:21 AM 37.6119 -81.7572 71° East 421 484 35,000  Level Indianapolis Center
Wed 08:29:22 AM 37.6492 -81.6156 72° East 423 487 35,000  Level Indianapolis Center
Wed 08:30:24 AM 37.6858 -81.4808 71° East 421 484 35,000  Level Indianapolis Center
Wed 08:31:26 AM 37.7225 -81.3444 71° East 423 487 35,000  Level Indianapolis Center
Wed 08:32:27 AM 37.7658 -81.1792 72° East 425 489 35,000  Level Indianapolis Center
Wed 08:33:29 AM 37.8067 -81.0464 69° East 419 482 35,000  Level Indianapolis Center
Wed 08:34:31 AM 37.8564 -80.9117 65° Northeast 421 484 35,000  Level Indianapolis Center
Wed 08:35:33 AM 37.9042 -80.7750 66° East 424 488 35,000  Level Indianapolis Center
Wed 08:36:34 AM 37.9517 -80.6400 66° East 422 486 35,000  Level Indianapolis Center
Wed 08:37:40 AM 38.0064 -80.4911 65° Northeast 415 478 35,000  Level Washington Center
Wed 08:38:41 AM 38.0558 -80.3544 65° Northeast 415 478 35,000  Level Washington Center
Wed 08:39:41 AM 38.1075 -80.2075 66° East 415 478 35,000  Level Washington Center
Wed 08:40:42 AM 38.1564 -80.0731 65° Northeast 415 478 35,000  Level Washington Center
Wed 08:41:40 AM 38.2053 -79.9333 66° East 415 478 35,000 -101 Level Washington Center
Wed 08:42:41 AM 38.2561 -79.7961 65° Northeast 415 478 34,800 -1,140 Descending Washington Center
Wed 08:43:41 AM 38.3025 -79.6586 67° East 415 478 32,700 -2,200 Descending Washington Center
Wed 08:44:41 AM 38.3464 -79.5311 66° East 428 493 30,400 -2,281 Descending Washington Center
Wed 08:45:42 AM 38.3947 -79.3881 67° East 433 498 28,100 -1,686 Descending Washington Center
Wed 08:46:42 AM 38.4369 -79.2417 70° East 433 498 27,000 -555 Descending Washington Center
Wed 08:47:41 AM 38.4644 -79.0839 77° East 438 504 27,000 -101 Level Washington Center
Wed 08:48:41 AM 38.4922 -78.9156 78° East 446 513 26,800 -1,210 Descending Washington Center
Wed 08:49:40 AM 38.5150 -78.7625 79° East 445 512 24,600 -2,118 Descending Washington Center
Wed 08:50:40 AM 38.5378 -78.6150 79° East 433 498 22,600 -1,488 Descending Washington Center
Wed 08:51:41 AM 38.5600 -78.4725 79° East 418 481 21,600 -1,279 Descending Washington Center
Wed 08:52:42 AM 38.5819 -78.3353 78° East 407 468 20,000 -2,529 Descending Washington Center
Wed 08:53:42 AM 38.6119 -78.2008 74° East 402 463 16,500 -2,471 Descending Washington Center
Wed 08:54:41 AM 38.6542 -78.0747 67° East 388 447 15,100 -1,250 Descending Washington Center
Wed 08:55:42 AM 38.6942 -77.9511 67° East 378 435 14,000 -1,438 Descending Washington Center
Wed 08:56:42 AM 38.7342 -77.8297 67° East 372 428 12,200 -1,576 Descending Washington Center
Wed 08:57:40 AM 38.7964 -77.7358 50° Northeast 350 403 10,900 -1,017 Descending Washington Center
Wed 08:58:40 AM 38.8439 -77.6386 58° Northeast 335 386 10,200 -800 Descending Washington Center
Wed 08:59:10 AM 38.8667 -77.5833 62° Northeast 307 353 9,700 -1,133 Descending Potomac TRACON
Wed 09:00:10 AM 38.9000 -77.4833 67° East 295 339 8,500 -1,263 Descending Potomac TRACON
Wed 09:01:04 AM 38.8833 -77.4000 104° East 298 343 7,300 -1,263 Descending Potomac TRACON
Wed 09:02:04 AM 38.8500 -77.3167 117° Southeast 276 318 6,100 -684 Descending Potomac TRACON
Wed 09:02:58 AM 38.8167 -77.2500 123° Southeast 227 261 6,000 -56 Descending Potomac TRACON
Wed 09:03:52 AM 38.8000 -77.1833 108° East 228 262 6,000 -250 Level Potomac TRACON
Wed 09:04:58 AM 38.7500 -77.1167 134° Southeast 228 262 5,500 -700 Descending Potomac TRACON
Wed 09:05:52 AM 38.7000 -77.1167 180° South 206 237 4,600 -789 Descending Potomac TRACON
Wed 09:06:52 AM 38.6333 -77.1000 169° South 215 247 4,000 -300 Descending Potomac TRACON
Wed 09:07:52 AM 38.5833 -77.1000 180° South 216 249 4,000 52 Level Potomac TRACON
Wed 09:08:47 AM 38.5167 -77.1000 180° South 219 252 4,100  Climbing Potomac TRACON
Wed 09:09:47 AM 38.5167 -77.0167 90° East 214 246 4,000 -50 Descending Potomac TRACON
Wed 09:10:47 AM 38.5667 -77.0167 360° North 188 216 4,000  Level Potomac TRACON
Wed 09:11:47 AM 38.6167 -77.0167 360° North 187 215 4,000 -350 Level Potomac TRACON
Wed 09:12:47 AM 38.6667 -77.0167 360° North 195 224 3,300 -800 Descending Potomac TRACON
Wed 09:13:47 AM 38.7167 -77.0167 360° North 165 190 2,400 -842 Descending Potomac TRACON
Wed 09:14:41 AM 38.7500 -77.0333 339° North 128 147 1,700 -632 Descending Potomac TRACON
Wed 09:15:41 AM 38.7833 -77.0333 360° North 116 133 1,200 -450 Descending Potomac TRACON
Wed 09:16:41 AM 38.8167 -77.0333 360° North 117 135 800 -400 Descending Potomac TRACON

Login

Don't have an account? Register now (free) for customized features, flight alerts, and more!